createdAt,value
2022-10-15T00:01:16.747Z,97959.84
2022-10-15T00:04:03.992Z,97953.53
2022-10-15T00:06:50.808Z,97951.66
2022-10-15T00:09:37.557Z,97939.94
2022-10-15T00:12:24.342Z,97945.97
2022-10-15T00:15:11.919Z,97947.47
2022-10-15T00:17:59.093Z,97944.38
2022-10-15T00:20:45.853Z,97943.00
2022-10-15T00:23:32.638Z,97945.16
2022-10-15T00:26:27.398Z,97931.59
2022-10-15T00:29:14.555Z,97935.50
2022-10-15T00:32:01.315Z,97934.59
2022-10-15T00:34:48.100Z,97933.44
2022-10-15T00:37:36.997Z,97927.75
2022-10-15T00:40:23.961Z,97924.47
2022-10-15T00:43:11.782Z,97923.03
2022-10-15T00:45:58.619Z,97909.53
2022-10-15T00:48:49.940Z,97917.34
2022-10-15T00:51:41.588Z,97913.38
2022-10-15T00:54:31.558Z,97912.72
2022-10-15T00:57:19.388Z,97903.66
2022-10-15T01:00:10.336Z,97891.91
2022-10-15T01:02:59.405Z,97882.03
2022-10-15T01:05:49.205Z,97889.53
2022-10-15T01:08:36.093Z,97891.00
2022-10-15T01:12:02.648Z,97883.09
2022-10-15T01:15:19.553Z,97880.91
2022-10-15T01:18:20.694Z,97879.19
2022-10-15T01:21:20.932Z,97878.66
2022-10-15T01:24:42.863Z,97872.63
2022-10-15T01:27:34.838Z,97866.88
2022-10-15T01:30:42.804Z,97865.69
2022-10-15T01:33:34.782Z,97860.72
2022-10-15T01:36:27.206Z,97862.22
2022-10-15T01:39:24.662Z,97856.03
2022-10-15T01:42:23.507Z,97856.75
2022-10-15T01:45:17.790Z,97838.69
2022-10-15T01:48:28.509Z,97841.44
2022-10-15T01:51:18.110Z,97838.47
2022-10-15T01:54:09.411Z,97833.63
2022-10-15T01:56:58.039Z,97837.13
2022-10-15T01:59:45.356Z,97837.25
2022-10-15T02:02:32.144Z,97839.41
2022-10-15T02:05:31.952Z,97830.00
2022-10-15T02:08:38.356Z,97838.19
2022-10-15T02:11:25.435Z,97840.25
2022-10-15T02:14:25.930Z,97837.06
2022-10-15T02:17:15.408Z,97827.16
2022-10-15T02:20:23.487Z,97825.13
2022-10-15T02:23:18.402Z,97818.38
2022-10-15T02:26:08.615Z,97820.22
2022-10-15T02:28:58.046Z,97815.00
2022-10-15T02:31:48.199Z,97817.31
2022-10-15T02:34:19.466Z,97812.56
2022-10-15T02:36:47.464Z,97806.41
2022-10-15T02:39:20.758Z,97808.69
2022-10-15T02:41:49.003Z,97800.09
2022-10-15T02:44:17.952Z,97807.97
2022-10-15T02:46:44.539Z,97806.06
2022-10-15T02:49:14.992Z,97797.66
2022-10-15T02:51:41.541Z,97796.19
2022-10-15T02:54:08.314Z,97795.50
2022-10-15T02:56:39.229Z,97803.19
2022-10-15T02:59:08.534Z,97812.19
2022-10-15T03:01:37.595Z,97796.97
2022-10-15T03:04:05.301Z,97796.13
2022-10-15T03:06:35.158Z,97784.88
2022-10-15T03:09:01.717Z,97791.91
2022-10-15T03:11:29.988Z,97790.56
2022-10-15T03:13:56.975Z,97795.03
2022-10-15T03:16:23.620Z,97789.91
2022-10-15T03:18:50.388Z,97774.91
2022-10-15T03:21:18.420Z,97780.91
2022-10-15T03:23:44.921Z,97775.44
2022-10-15T03:26:17.288Z,97784.97
2022-10-15T03:28:46.713Z,97780.72
2022-10-15T03:31:21.633Z,97772.66
2022-10-15T03:33:49.821Z,97782.41
2022-10-15T03:36:19.748Z,97777.16
2022-10-15T03:38:47.055Z,97771.75
2022-10-15T03:41:13.986Z,97774.91
2022-10-15T03:43:42.933Z,97776.59
2022-10-15T03:46:12.810Z,97784.88
2022-10-15T03:48:50.453Z,97788.00
2022-10-15T03:51:21.995Z,97792.91
2022-10-15T03:53:57.403Z,97791.09
2022-10-15T03:56:26.238Z,97796.34
2022-10-15T03:58:58.415Z,97794.97
2022-10-15T04:01:25.056Z,97795.69
2022-10-15T04:03:55.407Z,97782.56
2022-10-15T04:06:24.942Z,97788.31
2022-10-15T04:08:54.986Z,97780.25
2022-10-15T04:11:24.452Z,97776.38
2022-10-15T04:14:03.631Z,97781.63
2022-10-15T04:16:32.530Z,97780.38
2022-10-15T04:19:10.209Z,97788.09
2022-10-15T04:21:38.898Z,97782.59
2022-10-15T04:24:09.271Z,97781.53
2022-10-15T04:26:41.935Z,97792.56
2022-10-15T04:29:13.171Z,97795.84
2022-10-15T04:31:43.658Z,97796.38
2022-10-15T04:34:11.284Z,97794.31
2022-10-15T04:36:38.193Z,97793.50
2022-10-15T04:39:14.584Z,97790.25
2022-10-15T04:41:43.246Z,97795.78
2022-10-15T04:44:13.207Z,97801.59
2022-10-15T04:46:41.387Z,97792.56
2022-10-15T04:49:28.020Z,97793.50
2022-10-15T04:51:55.111Z,97785.66
2022-10-15T04:54:29.763Z,97802.53
2022-10-15T04:57:04.034Z,97789.38
2022-10-15T04:59:31.135Z,97803.19
2022-10-15T05:02:16.393Z,97797.16
2022-10-15T05:04:45.142Z,97790.50
2022-10-15T05:07:11.981Z,97785.56
2022-10-15T05:09:45.274Z,97793.13
2022-10-15T05:12:12.776Z,97799.78
2022-10-15T05:14:39.616Z,97806.03
2022-10-15T05:17:11.768Z,97804.97
2022-10-15T05:19:40.528Z,97806.16
2022-10-15T05:22:12.911Z,97809.31
2022-10-15T05:24:49.287Z,97802.47
2022-10-15T05:27:27.571Z,97815.34
2022-10-15T05:29:54.056Z,97817.88
2022-10-15T05:34:53.443Z,97819.13
2022-10-15T05:37:21.453Z,97819.44
2022-10-15T05:39:48.575Z,97828.59
2022-10-15T05:42:16.004Z,97837.22
2022-10-15T05:44:50.164Z,97833.38
2022-10-15T05:47:18.941Z,97827.50
2022-10-15T05:49:47.852Z,97832.25
2022-10-15T05:52:25.956Z,97836.88
2022-10-15T05:55:18.699Z,97837.66
2022-10-15T05:57:45.123Z,97846.75
2022-10-15T06:00:12.518Z,97838.53
2022-10-15T06:02:41.503Z,97845.25
2022-10-15T06:05:08.263Z,97847.59
2022-10-15T06:07:34.795Z,97847.41
2022-10-15T06:10:07.153Z,97850.63
2022-10-15T06:12:34.049Z,97857.78
2022-10-15T06:15:03.200Z,97851.28
2022-10-15T06:17:29.633Z,97851.72
2022-10-15T06:19:58.366Z,97855.16
2022-10-15T06:22:24.920Z,97860.19
2022-10-15T06:24:53.391Z,97860.34
2022-10-15T06:27:23.210Z,97871.06
2022-10-15T06:29:49.851Z,97873.19
2022-10-15T06:32:18.590Z,97870.56
2022-10-15T06:34:47.148Z,97880.69
2022-10-15T06:37:13.602Z,97894.41
2022-10-15T06:39:40.401Z,97898.19
2022-10-15T06:42:06.900Z,97892.66
2022-10-15T06:44:39.744Z,97895.66
2022-10-15T06:47:06.475Z,97899.69
2022-10-15T06:49:34.162Z,97908.94
2022-10-15T06:52:03.636Z,97900.84
2022-10-15T06:54:30.518Z,97921.56
2022-10-15T06:56:59.392Z,97916.19
2022-10-15T06:59:28.284Z,97921.72
2022-10-15T07:01:55.370Z,97925.50
2022-10-15T07:04:25.259Z,97928.09
2022-10-15T07:06:54.214Z,97931.19
2022-10-15T07:09:24.041Z,97934.06
2022-10-15T07:11:53.153Z,97936.72
2022-10-15T07:14:21.961Z,97941.03
2022-10-15T07:16:48.488Z,97937.13
2022-10-15T07:19:15.088Z,97935.28
2022-10-15T07:21:42.450Z,97942.97
2022-10-15T07:24:08.926Z,97953.34
2022-10-15T07:26:36.108Z,97952.38
2022-10-15T07:29:06.015Z,97947.16
2022-10-15T07:31:32.962Z,97955.72
2022-10-15T07:33:59.426Z,97954.06
2022-10-15T07:36:26.934Z,97965.06
2022-10-15T07:38:53.552Z,97960.53
2022-10-15T07:41:22.602Z,97958.72
2022-10-15T07:43:51.911Z,97950.34
2022-10-15T07:46:18.333Z,97961.75
2022-10-15T07:48:44.809Z,97960.75
2022-10-15T07:51:13.510Z,97967.56
2022-10-15T07:53:40.245Z,97967.25
2022-10-15T07:56:08.109Z,97972.69
2022-10-15T07:58:35.565Z,97979.47
2022-10-15T08:01:03.236Z,97987.00
2022-10-15T08:03:32.536Z,97988.66
2022-10-15T08:06:06.996Z,97996.81
2022-10-15T08:08:38.566Z,98001.34
2022-10-15T08:11:06.975Z,98002.66
2022-10-15T08:13:33.584Z,98006.34
2022-10-15T08:16:00.406Z,97998.75
2022-10-15T08:18:30.358Z,98006.06
2022-10-15T08:21:02.147Z,98008.22
2022-10-15T08:23:30.870Z,98005.16
2022-10-15T08:25:59.037Z,98012.47
2022-10-15T08:28:27.947Z,98017.31
2022-10-15T08:30:55.542Z,98015.72
2022-10-15T08:33:24.399Z,98023.59
2022-10-15T08:35:50.952Z,98027.28
2022-10-15T08:38:20.063Z,98022.75
2022-10-15T08:40:55.866Z,98030.63
2022-10-15T08:43:40.869Z,98043.72
2022-10-15T08:46:22.913Z,98050.66
2022-10-15T08:48:56.481Z,98055.84
2022-10-15T08:51:27.813Z,98052.25
2022-10-15T08:53:58.012Z,98048.53
2022-10-15T08:56:30.099Z,98058.75
2022-10-15T08:59:11.629Z,98060.88
2022-10-15T09:01:50.319Z,98063.41
2022-10-15T09:04:37.931Z,98066.53
2022-10-15T09:07:11.428Z,98056.53
2022-10-15T09:09:38.311Z,98062.16
2022-10-15T09:12:23.491Z,98063.94
2022-10-15T09:14:55.661Z,98061.59
2022-10-15T09:17:25.979Z,98079.66
2022-10-15T09:19:55.283Z,98073.53
2022-10-15T09:22:33.458Z,98069.91
2022-10-15T09:25:11.174Z,98079.19
2022-10-15T09:27:39.424Z,98080.41
2022-10-15T09:30:37.377Z,98088.72
2022-10-15T09:33:31.855Z,98089.59
2022-10-15T09:36:09.857Z,98091.50
2022-10-15T09:38:54.127Z,98095.81
2022-10-15T09:41:36.497Z,98093.13
2022-10-15T09:44:07.234Z,98100.28
2022-10-15T09:46:46.235Z,98094.78
2022-10-15T09:49:28.019Z,98106.53
2022-10-15T09:52:18.256Z,98108.53
2022-10-15T09:55:05.027Z,98111.84
2022-10-15T09:57:34.947Z,98116.38
2022-10-15T10:00:04.741Z,98121.03
2022-10-15T10:02:38.908Z,98117.91
2022-10-15T10:05:29.198Z,98125.88
2022-10-15T10:08:19.519Z,98126.63
2022-10-15T10:10:57.850Z,98130.44
2022-10-15T10:13:36.400Z,98137.22
2022-10-15T10:16:06.340Z,98129.84
2022-10-15T10:18:33.226Z,98125.06
2022-10-15T10:21:04.578Z,98135.31
2022-10-15T10:23:36.396Z,98137.44
2022-10-15T10:26:06.487Z,98139.72
2022-10-15T10:28:53.695Z,98139.31
2022-10-15T10:31:42.294Z,98142.25
2022-10-15T10:34:17.251Z,98146.41
2022-10-15T10:36:51.365Z,98140.00
2022-10-15T10:39:29.042Z,98140.91
2022-10-15T10:42:24.688Z,98138.00
2022-10-15T10:44:52.753Z,98132.72
2022-10-15T10:47:21.714Z,98143.19
2022-10-15T10:49:51.556Z,98160.66
2022-10-15T10:52:36.587Z,98150.91
2022-10-15T10:55:20.187Z,98152.28
2022-10-15T10:57:54.164Z,98142.34
2022-10-15T11:00:29.829Z,98152.81
2022-10-15T11:02:57.144Z,98157.22
2022-10-15T11:05:29.215Z,98160.44
2022-10-15T11:08:29.775Z,98165.06
2022-10-15T11:11:37.047Z,98175.41
2022-10-15T11:14:36.818Z,98174.50
2022-10-15T11:17:21.933Z,98181.63
2022-10-15T11:20:42.257Z,98186.66
2022-10-15T11:23:40.815Z,98179.88
2022-10-15T11:26:52.032Z,98175.78
2022-10-15T11:30:04.203Z,98179.13
2022-10-15T11:33:06.930Z,98178.75
2022-10-15T11:36:00.893Z,98180.13
2022-10-15T11:38:44.927Z,98180.06
2022-10-15T11:41:23.250Z,98182.63
2022-10-15T11:44:04.803Z,98191.50
2022-10-15T11:46:46.609Z,98177.28
2022-10-15T11:49:22.103Z,98178.94
2022-10-15T11:52:23.015Z,98174.59
2022-10-15T11:55:01.566Z,98173.47
2022-10-15T11:57:31.117Z,98170.94
2022-10-15T12:00:15.916Z,98173.53
2022-10-15T12:02:45.249Z,98173.44
2022-10-15T12:05:20.779Z,98175.88
2022-10-15T12:07:50.044Z,98177.63
2022-10-15T12:10:42.162Z,98164.25
2022-10-15T12:13:27.792Z,98157.97
2022-10-15T12:16:02.823Z,98169.31
2022-10-15T12:18:40.665Z,98168.66
2022-10-15T12:21:44.606Z,98160.44
2022-10-15T12:24:44.559Z,98164.63
2022-10-15T12:27:20.361Z,98158.50
2022-10-15T12:30:12.017Z,98166.00
2022-10-15T12:32:41.945Z,98165.09
2022-10-15T12:35:14.456Z,98155.31
2022-10-15T12:37:44.436Z,98165.88
2022-10-15T12:40:25.527Z,98163.50
2022-10-15T12:43:14.712Z,98151.97
2022-10-15T12:45:56.196Z,98151.34
2022-10-15T12:48:44.485Z,98154.66
2022-10-15T12:51:16.793Z,98150.38
2022-10-15T12:53:45.008Z,98159.13
2022-10-15T12:56:16.793Z,98167.69
2022-10-15T12:58:50.994Z,98159.47
2022-10-15T13:01:20.530Z,98155.16
2022-10-15T13:03:50.278Z,98155.56
2022-10-15T13:06:22.793Z,98159.81
2022-10-15T13:09:00.350Z,98158.19
2022-10-15T13:11:44.535Z,98147.19
2022-10-15T13:14:20.066Z,98148.66
2022-10-15T13:16:48.390Z,98147.06
2022-10-15T13:19:39.944Z,98151.41
2022-10-15T13:22:24.756Z,98157.31
2022-10-15T13:24:53.851Z,98160.03
2022-10-15T13:27:33.540Z,98153.41
2022-10-15T13:30:09.764Z,98150.94
2022-10-15T13:32:42.730Z,98161.47
2022-10-15T13:35:18.059Z,98154.72
2022-10-15T13:37:46.716Z,98159.88
2022-10-15T13:40:26.723Z,98160.53
2022-10-15T13:43:06.128Z,98160.91
2022-10-15T13:45:37.274Z,98158.97
2022-10-15T13:48:11.278Z,98147.56
2022-10-15T13:50:39.031Z,98157.53
2022-10-15T13:53:28.472Z,98152.25
2022-10-15T13:55:57.548Z,98153.63
2022-10-15T13:58:37.819Z,98149.63
2022-10-15T14:01:15.360Z,98145.38
2022-10-15T14:03:52.126Z,98146.44
2022-10-15T14:06:22.999Z,98139.69
2022-10-15T14:08:52.095Z,98148.22
2022-10-15T14:11:19.001Z,98152.53
2022-10-15T14:13:45.880Z,98145.00
2022-10-15T14:16:18.440Z,98157.47
2022-10-15T14:18:49.324Z,98157.78
2022-10-15T14:21:28.666Z,98163.28
2022-10-15T14:24:12.768Z,98158.22
2022-10-15T14:26:39.646Z,98155.38
2022-10-15T14:29:07.052Z,98157.16
2022-10-15T14:31:36.465Z,98154.38
2022-10-15T14:34:04.253Z,98149.63
2022-10-15T14:36:40.439Z,98158.38
2022-10-15T14:39:30.329Z,98157.97
2022-10-15T14:42:01.434Z,98166.06
2022-10-15T14:44:42.916Z,98167.22
2022-10-15T14:47:25.524Z,98162.28
2022-10-15T14:49:59.730Z,98166.66
2022-10-15T14:52:28.862Z,98160.69
2022-10-15T14:55:11.770Z,98154.88
2022-10-15T14:57:43.292Z,98145.19
2022-10-15T15:00:33.610Z,98147.75
2022-10-15T15:03:06.412Z,98144.09
2022-10-15T15:05:45.907Z,98156.16
2022-10-15T15:08:12.594Z,98165.09
2022-10-15T15:10:42.956Z,98163.25
2022-10-15T15:13:17.333Z,98156.34
2022-10-15T15:15:46.426Z,98168.25
2022-10-15T15:18:15.662Z,98164.94
2022-10-15T15:20:49.161Z,98149.09
2022-10-15T15:23:26.896Z,98145.97
2022-10-15T15:25:54.906Z,98151.16
2022-10-15T15:28:24.478Z,98150.34
2022-10-15T15:31:06.411Z,98154.75
2022-10-15T15:33:35.391Z,98153.13
2022-10-15T15:36:07.444Z,98153.25
2022-10-15T15:41:13.080Z,98162.78
2022-10-15T15:43:40.007Z,98164.38
2022-10-15T15:46:06.892Z,98163.09
2022-10-15T15:48:33.382Z,98169.13
2022-10-15T15:51:03.695Z,98166.88
2022-10-15T15:53:30.556Z,98175.91
2022-10-15T15:55:59.333Z,98170.66
2022-10-15T15:58:25.874Z,98169.44
2022-10-15T16:00:52.328Z,98168.03
2022-10-15T16:03:18.802Z,98176.31
2022-10-15T16:05:45.664Z,98177.06
2022-10-15T16:08:13.004Z,98188.56
2022-10-15T16:10:39.467Z,98173.63
2022-10-15T16:13:06.070Z,98186.78
2022-10-15T16:15:34.867Z,98192.34
2022-10-15T16:18:04.706Z,98190.72
2022-10-15T16:20:31.157Z,98198.97
2022-10-15T16:22:57.627Z,98200.66
2022-10-15T16:25:29.239Z,98202.16
2022-10-15T16:27:57.142Z,98203.63
2022-10-15T16:30:23.660Z,98213.28
2022-10-15T16:32:51.252Z,98214.97
2022-10-15T16:35:17.687Z,98218.59
2022-10-15T16:37:45.398Z,98229.81
2022-10-15T16:40:12.593Z,98218.50
2022-10-15T16:42:39.050Z,98221.22
2022-10-15T16:45:09.214Z,98227.91
2022-10-15T16:47:35.649Z,98228.91
2022-10-15T16:50:02.521Z,98228.44
2022-10-15T16:52:29.144Z,98229.66
2022-10-15T16:54:55.617Z,98225.78
2022-10-15T16:57:22.067Z,98244.63
2022-10-15T16:59:48.594Z,98241.72
2022-10-15T17:02:15.248Z,98245.72
2022-10-15T17:05:00.153Z,98246.47
2022-10-15T17:07:47.049Z,98251.00
2022-10-15T17:10:33.811Z,98258.50
2022-10-15T17:13:20.622Z,98263.47
2022-10-15T17:16:13.295Z,98266.38
2022-10-15T17:19:03.033Z,98266.81
2022-10-15T17:21:50.365Z,98270.41
2022-10-15T17:24:37.148Z,98268.72
2022-10-15T17:27:23.927Z,98260.09
2022-10-15T17:30:11.160Z,98271.59
2022-10-15T17:32:57.901Z,98270.13
2022-10-15T17:35:47.296Z,98282.09
2022-10-15T17:38:34.081Z,98286.44
2022-10-15T17:41:26.644Z,98288.69
2022-10-15T17:44:13.997Z,98295.09
2022-10-15T17:47:00.778Z,98303.16
2022-10-15T17:49:47.875Z,98296.94
2022-10-15T17:52:36.944Z,98300.19
2022-10-15T17:55:27.895Z,98311.59
2022-10-15T17:58:16.662Z,98312.81
2022-10-15T18:01:03.980Z,98305.66
2022-10-15T18:03:55.340Z,98294.25
2022-10-15T18:06:45.389Z,98300.38
2022-10-15T18:09:43.411Z,98301.03
2022-10-15T18:12:30.173Z,98299.81
2022-10-15T18:15:17.011Z,98301.03
2022-10-15T18:18:03.863Z,98308.06
2022-10-15T18:20:50.730Z,98293.59
2022-10-15T18:23:38.977Z,98305.38
2022-10-15T18:26:25.838Z,98314.44
2022-10-15T18:29:12.702Z,98313.72
2022-10-15T18:32:01.176Z,98308.72
2022-10-15T18:34:49.388Z,98311.22
2022-10-15T18:37:36.138Z,98322.53
2022-10-15T18:40:22.930Z,98328.66
2022-10-15T18:43:09.736Z,98324.94
2022-10-15T18:45:56.603Z,98326.44
2022-10-15T18:48:43.836Z,98328.16
2022-10-15T18:51:32.711Z,98323.09
2022-10-15T18:54:20.624Z,98322.69
2022-10-15T18:57:09.780Z,98324.94
2022-10-15T18:59:56.614Z,98323.09
2022-10-15T19:02:43.382Z,98334.50
2022-10-15T19:05:30.270Z,98327.72
2022-10-15T19:08:20.686Z,98327.63
2022-10-15T19:11:08.630Z,98338.16
2022-10-15T19:14:00.139Z,98319.25
2022-10-15T19:16:48.014Z,98325.81
2022-10-15T19:19:34.805Z,98336.13
2022-10-15T19:22:21.875Z,98327.41
2022-10-15T19:25:08.912Z,98333.97
2022-10-15T19:27:56.178Z,98333.31
2022-10-15T19:30:43.502Z,98322.28
2022-10-15T19:33:31.052Z,98331.72
2022-10-15T19:36:27.211Z,98333.09
2022-10-15T19:39:20.913Z,98331.41
2022-10-15T19:42:07.673Z,98333.53
2022-10-15T19:44:54.505Z,98328.94
2022-10-15T19:47:42.163Z,98329.00
2022-10-15T19:50:29.843Z,98353.53
2022-10-15T19:53:18.341Z,98350.88
2022-10-15T19:56:10.083Z,98360.06
2022-10-15T19:58:58.735Z,98358.53
2022-10-15T20:01:45.581Z,98345.34
2022-10-15T20:04:32.427Z,98341.75
2022-10-15T20:07:19.233Z,98364.47
2022-10-15T20:10:08.861Z,98370.00
2022-10-15T20:12:55.613Z,98368.38
2022-10-15T20:15:43.959Z,98372.34
2022-10-15T20:18:31.429Z,98370.13
2022-10-15T20:21:18.377Z,98376.31
2022-10-15T20:24:05.351Z,98383.72
2022-10-15T20:26:54.546Z,98392.63
2022-10-15T20:29:41.361Z,98392.78
2022-10-15T20:32:35.345Z,98401.84
2022-10-15T20:35:22.564Z,98407.88
2022-10-15T20:38:09.350Z,98406.56
2022-10-15T20:40:56.134Z,98413.72
2022-10-15T20:43:45.028Z,98411.44
2022-10-15T20:46:35.433Z,98404.06
2022-10-15T20:49:29.944Z,98408.09
2022-10-15T20:52:16.822Z,98418.47
2022-10-15T20:55:03.879Z,98420.81
2022-10-15T20:57:53.542Z,98421.78
2022-10-15T21:00:40.721Z,98427.56
2022-10-15T21:03:29.774Z,98419.72
2022-10-15T21:06:16.604Z,98425.56
2022-10-15T21:09:03.757Z,98413.47
2022-10-15T21:11:50.586Z,98409.28
2022-10-15T21:14:37.775Z,98409.16
2022-10-15T21:17:24.770Z,98413.56
2022-10-15T21:20:11.740Z,98423.13
2022-10-15T21:22:58.517Z,98421.63
2022-10-15T21:25:45.282Z,98415.03
2022-10-15T21:28:33.156Z,98424.94
2022-10-15T21:31:19.968Z,98438.06
2022-10-15T21:34:06.782Z,98433.72
2022-10-15T21:36:57.394Z,98435.88
2022-10-15T21:39:44.217Z,98431.50
2022-10-15T21:42:31.592Z,98428.78
2022-10-15T21:45:18.402Z,98433.81
2022-10-15T21:48:05.500Z,98431.66
2022-10-15T21:50:52.277Z,98434.50
2022-10-15T21:53:39.121Z,98445.75
2022-10-15T21:56:26.405Z,98441.03
2022-10-15T21:59:13.252Z,98444.41
2022-10-15T22:02:00.404Z,98445.88
2022-10-15T22:04:47.376Z,98440.53
2022-10-15T22:07:38.481Z,98449.09
2022-10-15T22:10:27.085Z,98454.31
2022-10-15T22:13:16.072Z,98460.22
2022-10-15T22:16:03.167Z,98459.19
2022-10-15T22:18:49.990Z,98448.09
2022-10-15T22:21:38.697Z,98452.78
2022-10-15T22:24:25.954Z,98454.81
2022-10-15T22:27:13.165Z,98457.00
2022-10-15T22:29:59.936Z,98448.25
2022-10-15T22:32:49.229Z,98460.69
2022-10-15T22:35:36.037Z,98459.03
2022-10-15T22:38:22.793Z,98446.44
2022-10-15T22:41:09.868Z,98455.84
2022-10-15T22:43:59.121Z,98446.41
2022-10-15T22:46:49.594Z,98451.63
2022-10-15T22:49:36.723Z,98464.53
2022-10-15T22:52:23.695Z,98462.84
2022-10-15T22:55:10.735Z,98463.72
2022-10-15T22:57:57.693Z,98463.72
2022-10-15T23:00:44.446Z,98468.25
2022-10-15T23:03:31.197Z,98463.19
2022-10-15T23:06:19.045Z,98462.53
2022-10-15T23:09:07.449Z,98466.38
2022-10-15T23:11:54.233Z,98457.47
2022-10-15T23:14:40.993Z,98463.16
2022-10-15T23:17:30.531Z,98469.22
2022-10-15T23:20:17.450Z,98469.88
2022-10-15T23:23:05.369Z,98475.09
2022-10-15T23:25:52.147Z,98473.22
2022-10-15T23:28:38.984Z,98472.75
2022-10-15T23:31:28.674Z,98473.09
2022-10-15T23:34:24.027Z,98479.59
2022-10-15T23:37:10.778Z,98473.59
2022-10-15T23:39:57.593Z,98473.94
2022-10-15T23:42:44.496Z,98480.31
2022-10-15T23:45:31.313Z,98475.41
2022-10-15T23:48:18.061Z,98471.78
2022-10-15T23:51:19.123Z,98466.53
2022-10-15T23:54:15.032Z,98469.41
2022-10-15T23:57:04.138Z,98463.38
2022-10-15T23:59:50.869Z,98461.00
